sensor_id;sensor_type;location;lat;lon;timestamp;pressure;altitude;pressure_sealevel;temperature;humidity
29839;BME280;18669;53.356;-1.464;2022-08-19T00:01:52;100037.25;;;19.38;100.00
29839;BME280;18669;53.356;-1.464;2022-08-19T00:04:21;100028.41;;;19.38;100.00
29839;BME280;18669;53.356;-1.464;2022-08-19T00:06:47;100019.97;;;19.31;100.00
29839;BME280;18669;53.356;-1.464;2022-08-19T00:09:16;100023.28;;;19.35;100.00
29839;BME280;18669;53.356;-1.464;2022-08-19T00:11:43;100030.06;;;19.26;100.00
29839;BME280;18669;53.356;-1.464;2022-08-19T00:14:11;100025.06;;;19.21;100.00
29839;BME280;18669;53.356;-1.464;2022-08-19T00:16:38;100023.47;;;19.19;100.00
29839;BME280;18669;53.356;-1.464;2022-08-19T00:19:05;100030.78;;;19.15;100.00
29839;BME280;18669;53.356;-1.464;2022-08-19T00:21:34;100035.63;;;19.23;100.00
29839;BME280;18669;53.356;-1.464;2022-08-19T00:24:07;100033.38;;;19.17;100.00
29839;BME280;18669;53.356;-1.464;2022-08-19T00:26:34;100031.94;;;19.11;100.00
29839;BME280;18669;53.356;-1.464;2022-08-19T00:29:02;100035.56;;;19.10;100.00
29839;BME280;18669;53.356;-1.464;2022-08-19T00:31:29;100038.91;;;19.14;100.00
29839;BME280;18669;53.356;-1.464;2022-08-19T00:33:57;100054.91;;;19.14;100.00
29839;BME280;18669;53.356;-1.464;2022-08-19T00:36:24;100060.38;;;18.98;100.00
29839;BME280;18669;53.356;-1.464;2022-08-19T00:38:50;100063.25;;;18.80;100.00
29839;BME280;18669;53.356;-1.464;2022-08-19T00:41:20;100061.44;;;18.81;100.00
29839;BME280;18669;53.356;-1.464;2022-08-19T00:44:04;100065.06;;;18.79;100.00
29839;BME280;18669;53.356;-1.464;2022-08-19T00:46:33;100066.91;;;18.64;100.00
29839;BME280;18669;53.356;-1.464;2022-08-19T00:49:00;100068.69;;;18.64;100.00
29839;BME280;18669;53.356;-1.464;2022-08-19T00:51:30;100062.91;;;18.57;100.00
29839;BME280;18669;53.356;-1.464;2022-08-19T00:53:59;100059.69;;;18.38;100.00
29839;BME280;18669;53.356;-1.464;2022-08-19T00:56:28;100068.91;;;18.32;100.00
29839;BME280;18669;53.356;-1.464;2022-08-19T00:58:59;100056.75;;;18.28;100.00
29839;BME280;18669;53.356;-1.464;2022-08-19T01:01:28;100062.94;;;18.14;100.00
29839;BME280;18669;53.356;-1.464;2022-08-19T01:04:13;100068.25;;;18.14;100.00
29839;BME280;18669;53.356;-1.464;2022-08-19T01:06:40;100069.78;;;18.18;100.00
29839;BME280;18669;53.356;-1.464;2022-08-19T01:09:07;100076.63;;;18.22;100.00
29839;BME280;18669;53.356;-1.464;2022-08-19T01:11:38;100071.88;;;18.27;100.00
29839;BME280;18669;53.356;-1.464;2022-08-19T01:14:05;100076.63;;;18.22;100.00
29839;BME280;18669;53.356;-1.464;2022-08-19T01:16:33;100076.63;;;18.22;100.00
29839;BME280;18669;53.356;-1.464;2022-08-19T01:19:02;100075.41;;;18.13;100.00
29839;BME280;18669;53.356;-1.464;2022-08-19T01:21:40;100069.41;;;18.24;100.00
29839;BME280;18669;53.356;-1.464;2022-08-19T01:24:08;100076.53;;;18.09;100.00
29839;BME280;18669;53.356;-1.464;2022-08-19T01:26:40;100073.97;;;18.22;100.00
29839;BME280;18669;53.356;-1.464;2022-08-19T01:29:08;100083.00;;;18.05;100.00
29839;BME280;18669;53.356;-1.464;2022-08-19T01:31:35;100087.53;;;18.03;100.00
29839;BME280;18669;53.356;-1.464;2022-08-19T01:34:03;100095.06;;;18.11;100.00
29839;BME280;18669;53.356;-1.464;2022-08-19T01:39:03;100094.41;;;18.07;100.00
29839;BME280;18669;53.356;-1.464;2022-08-19T01:41:29;100089.97;;;17.92;100.00
29839;BME280;18669;53.356;-1.464;2022-08-19T01:43:55;100090.06;;;17.90;100.00
29839;BME280;18669;53.356;-1.464;2022-08-19T01:46:22;100096.59;;;17.84;100.00
29839;BME280;18669;53.356;-1.464;2022-08-19T01:48:48;100094.31;;;17.78;100.00
29839;BME280;18669;53.356;-1.464;2022-08-19T01:51:15;100086.50;;;17.75;100.00
29839;BME280;18669;53.356;-1.464;2022-08-19T01:53:41;100076.41;;;17.66;100.00
29839;BME280;18669;53.356;-1.464;2022-08-19T01:56:08;100089.88;;;17.63;100.00
29839;BME280;18669;53.356;-1.464;2022-08-19T01:58:38;100096.75;;;17.67;100.00
29839;BME280;18669;53.356;-1.464;2022-08-19T02:01:07;100093.47;;;17.47;100.00
29839;BME280;18669;53.356;-1.464;2022-08-19T02:03:34;100094.59;;;17.43;100.00
29839;BME280;18669;53.356;-1.464;2022-08-19T02:06:03;100096.06;;;17.33;100.00
29839;BME280;18669;53.356;-1.464;2022-08-19T02:08:33;100097.00;;;17.32;100.00
29839;BME280;18669;53.356;-1.464;2022-08-19T02:11:01;100096.84;;;17.19;100.00
29839;BME280;18669;53.356;-1.464;2022-08-19T02:13:27;100111.16;;;17.16;100.00
29839;BME280;18669;53.356;-1.464;2022-08-19T02:15:54;100114.19;;;17.10;100.00
29839;BME280;18669;53.356;-1.464;2022-08-19T02:18:20;100124.03;;;17.08;100.00
29839;BME280;18669;53.356;-1.464;2022-08-19T02:20:46;100118.91;;;17.05;100.00
29839;BME280;18669;53.356;-1.464;2022-08-19T02:23:16;100128.16;;;17.13;100.00
29839;BME280;18669;53.356;-1.464;2022-08-19T02:25:47;100125.91;;;17.22;100.00
29839;BME280;18669;53.356;-1.464;2022-08-19T02:28:14;100118.03;;;17.04;100.00
29839;BME280;18669;53.356;-1.464;2022-08-19T02:30:41;100123.44;;;17.03;100.00
29839;BME280;18669;53.356;-1.464;2022-08-19T02:33:08;100119.13;;;17.00;100.00
29839;BME280;18669;53.356;-1.464;2022-08-19T02:35:34;100121.25;;;16.93;100.00
29839;BME280;18669;53.356;-1.464;2022-08-19T02:38:00;100126.91;;;16.87;100.00
29839;BME280;18669;53.356;-1.464;2022-08-19T02:40:49;100130.00;;;16.95;100.00
29839;BME280;18669;53.356;-1.464;2022-08-19T02:43:17;100120.31;;;16.78;100.00
29839;BME280;18669;53.356;-1.464;2022-08-19T02:45:46;100123.63;;;16.82;100.00
29839;BME280;18669;53.356;-1.464;2022-08-19T02:48:21;100130.44;;;16.88;100.00
29839;BME280;18669;53.356;-1.464;2022-08-19T02:50:50;100132.03;;;16.74;100.00
29839;BME280;18669;53.356;-1.464;2022-08-19T02:53:24;100132.97;;;16.73;100.00
29839;BME280;18669;53.356;-1.464;2022-08-19T02:55:52;100137.94;;;16.63;100.00
29839;BME280;18669;53.356;-1.464;2022-08-19T02:58:20;100131.69;;;16.64;100.00
29839;BME280;18669;53.356;-1.464;2022-08-19T03:00:51;100135.78;;;16.70;100.00
29839;BME280;18669;53.356;-1.464;2022-08-19T03:03:18;100153.88;;;16.63;100.00
29839;BME280;18669;53.356;-1.464;2022-08-19T03:05:45;100154.72;;;16.64;100.00
29839;BME280;18669;53.356;-1.464;2022-08-19T03:08:12;100148.56;;;16.63;100.00
29839;BME280;18669;53.356;-1.464;2022-08-19T03:10:44;100151.66;;;16.72;100.00
29839;BME280;18669;53.356;-1.464;2022-08-19T03:13:16;100148.75;;;16.76;100.00
29839;BME280;18669;53.356;-1.464;2022-08-19T03:15:45;100156.88;;;16.73;100.00
29839;BME280;18669;53.356;-1.464;2022-08-19T03:18:13;100138.72;;;16.65;100.00
29839;BME280;18669;53.356;-1.464;2022-08-19T03:20:45;100145.81;;;16.81;100.00
29839;BME280;18669;53.356;-1.464;2022-08-19T03:23:11;100143.91;;;16.67;100.00
29839;BME280;18669;53.356;-1.464;2022-08-19T03:25:44;100150.78;;;16.71;100.00
29839;BME280;18669;53.356;-1.464;2022-08-19T03:28:11;100155.66;;;16.63;100.00
29839;BME280;18669;53.356;-1.464;2022-08-19T03:30:39;100152.66;;;16.69;100.00
29839;BME280;18669;53.356;-1.464;2022-08-19T03:33:07;100156.78;;;16.59;100.00
29839;BME280;18669;53.356;-1.464;2022-08-19T03:35:34;100166.84;;;16.52;100.00
29839;BME280;18669;53.356;-1.464;2022-08-19T03:38:03;100163.41;;;16.50;100.00
29839;BME280;18669;53.356;-1.464;2022-08-19T03:40:29;100165.81;;;16.38;100.00
29839;BME280;18669;53.356;-1.464;2022-08-19T03:42:56;100164.16;;;16.36;100.00
29839;BME280;18669;53.356;-1.464;2022-08-19T03:45:23;100171.00;;;16.40;100.00
29839;BME280;18669;53.356;-1.464;2022-08-19T03:47:50;100174.22;;;16.29;100.00
29839;BME280;18669;53.356;-1.464;2022-08-19T03:50:16;100177.78;;;16.46;100.00
29839;BME280;18669;53.356;-1.464;2022-08-19T03:52:48;100172.34;;;16.31;100.00
29839;BME280;18669;53.356;-1.464;2022-08-19T03:55:14;100188.28;;;16.14;100.00
29839;BME280;18669;53.356;-1.464;2022-08-19T03:57:40;100183.22;;;16.09;100.00
29839;BME280;18669;53.356;-1.464;2022-08-19T04:00:07;100174.63;;;16.04;100.00
29839;BME280;18669;53.356;-1.464;2022-08-19T04:02:33;100176.59;;;16.00;100.00
29839;BME280;18669;53.356;-1.464;2022-08-19T04:05:00;100176.59;;;16.00;100.00
29839;BME280;18669;53.356;-1.464;2022-08-19T04:07:26;100178.38;;;16.00;100.00
29839;BME280;18669;53.356;-1.464;2022-08-19T04:09:52;100181.28;;;15.95;100.00
29839;BME280;18669;53.356;-1.464;2022-08-19T04:12:19;100186.78;;;15.90;100.00
29839;BME280;18669;53.356;-1.464;2022-08-19T04:14:46;100187.16;;;15.82;100.00
29839;BME280;18669;53.356;-1.464;2022-08-19T04:17:12;100190.88;;;15.78;100.00
29839;BME280;18669;53.356;-1.464;2022-08-19T04:19:40;100192.84;;;15.75;100.00
29839;BME280;18669;53.356;-1.464;2022-08-19T04:22:07;100205.47;;;15.70;100.00
29839;BME280;18669;53.356;-1.464;2022-08-19T04:24:34;100213.34;;;15.71;100.00
29839;BME280;18669;53.356;-1.464;2022-08-19T04:27:01;100217.16;;;15.65;100.00
29839;BME280;18669;53.356;-1.464;2022-08-19T04:29:29;100210.50;;;15.57;100.00
29839;BME280;18669;53.356;-1.464;2022-08-19T04:31:58;100202.78;;;15.52;100.00
29839;BME280;18669;53.356;-1.464;2022-08-19T04:34:27;100201.66;;;15.56;100.00
29839;BME280;18669;53.356;-1.464;2022-08-19T04:36:55;100210.16;;;15.45;100.00
29839;BME280;18669;53.356;-1.464;2022-08-19T04:39:25;100208.56;;;15.41;100.00
29839;BME280;18669;53.356;-1.464;2022-08-19T04:42:16;100220.19;;;15.39;100.00
29839;BME280;18669;53.356;-1.464;2022-08-19T04:45:02;100222.44;;;15.29;100.00
29839;BME280;18669;53.356;-1.464;2022-08-19T04:47:29;100225.88;;;15.12;100.00
29839;BME280;18669;53.356;-1.464;2022-08-19T04:49:57;100220.63;;;15.10;100.00
29839;BME280;18669;53.356;-1.464;2022-08-19T04:52:23;100232.41;;;15.03;100.00
29839;BME280;18669;53.356;-1.464;2022-08-19T04:54:50;100237.94;;;14.98;100.00
29839;BME280;18669;53.356;-1.464;2022-08-19T04:57:16;100241.50;;;14.97;100.00
29839;BME280;18669;53.356;-1.464;2022-08-19T04:59:42;100240.88;;;15.11;100.00
29839;BME280;18669;53.356;-1.464;2022-08-19T05:02:09;100238.56;;;14.84;100.00
29839;BME280;18669;53.356;-1.464;2022-08-19T05:04:36;100252.81;;;14.82;100.00
29839;BME280;18669;53.356;-1.464;2022-08-19T05:07:05;100249.16;;;14.84;100.00
29839;BME280;18669;53.356;-1.464;2022-08-19T05:09:32;100248.72;;;14.74;100.00
29839;BME280;18669;53.356;-1.464;2022-08-19T05:11:58;100245.41;;;14.69;100.00
29839;BME280;18669;53.356;-1.464;2022-08-19T05:14:23;100255.13;;;14.89;100.00
29839;BME280;18669;53.356;-1.464;2022-08-19T05:16:50;100252.59;;;14.66;100.00
29839;BME280;18669;53.356;-1.464;2022-08-19T05:19:16;100253.66;;;14.82;100.00
29839;BME280;18669;53.356;-1.464;2022-08-19T05:22:04;100261.78;;;14.57;100.00
29839;BME280;18669;53.356;-1.464;2022-08-19T05:24:49;100267.41;;;14.49;100.00
29839;BME280;18669;53.356;-1.464;2022-08-19T05:27:15;100269.94;;;14.73;100.00
29839;BME280;18669;53.356;-1.464;2022-08-19T05:29:41;100277.88;;;14.52;100.00
29839;BME280;18669;53.356;-1.464;2022-08-19T05:32:07;100278.81;;;14.72;100.00
29839;BME280;18669;53.356;-1.464;2022-08-19T05:34:34;100276.38;;;14.46;100.00
29839;BME280;18669;53.356;-1.464;2022-08-19T05:37:04;100284.22;;;14.48;100.00
29839;BME280;18669;53.356;-1.464;2022-08-19T05:39:33;100292.88;;;14.52;100.00
29839;BME280;18669;53.356;-1.464;2022-08-19T05:42:06;100292.88;;;14.52;100.00
29839;BME280;18669;53.356;-1.464;2022-08-19T05:44:35;100301.69;;;14.52;100.00
29839;BME280;18669;53.356;-1.464;2022-08-19T05:47:04;100290.31;;;14.50;100.00
29839;BME280;18669;53.356;-1.464;2022-08-19T05:49:32;100281.66;;;14.46;100.00
29839;BME280;18669;53.356;-1.464;2022-08-19T05:51:58;100290.78;;;14.39;100.00
29839;BME280;18669;53.356;-1.464;2022-08-19T05:54:27;100296.59;;;14.47;100.00
29839;BME280;18669;53.356;-1.464;2022-08-19T05:56:53;100291.94;;;14.75;100.00
29839;BME280;18669;53.356;-1.464;2022-08-19T05:59:20;100288.66;;;14.68;100.00
29839;BME280;18669;53.356;-1.464;2022-08-19T06:01:49;100291.31;;;14.68;100.00
29839;BME280;18669;53.356;-1.464;2022-08-19T06:04:21;100286.50;;;14.78;100.00
29839;BME280;18669;53.356;-1.464;2022-08-19T06:06:50;100281.03;;;14.83;100.00
29839;BME280;18669;53.356;-1.464;2022-08-19T06:09:18;100285.88;;;14.92;100.00
29839;BME280;18669;53.356;-1.464;2022-08-19T06:11:57;100285.22;;;15.07;100.00
29839;BME280;18669;53.356;-1.464;2022-08-19T06:14:29;100290.38;;;15.11;100.00
29839;BME280;18669;53.356;-1.464;2022-08-19T06:16:56;100285.22;;;15.07;100.00
29839;BME280;18669;53.356;-1.464;2022-08-19T06:19:23;100291.88;;;15.16;100.00
29839;BME280;18669;53.356;-1.464;2022-08-19T06:21:56;100295.19;;;15.21;100.00
29839;BME280;18669;53.356;-1.464;2022-08-19T06:24:25;100302.13;;;15.24;100.00
29839;BME280;18669;53.356;-1.464;2022-08-19T06:26:54;100294.84;;;15.29;100.00
29839;BME280;18669;53.356;-1.464;2022-08-19T06:29:23;100298.13;;;15.34;100.00
29839;BME280;18669;53.356;-1.464;2022-08-19T06:31:52;100296.28;;;15.36;100.00
29839;BME280;18669;53.356;-1.464;2022-08-19T06:34:19;100303.28;;;15.38;100.00
29839;BME280;18669;53.356;-1.464;2022-08-19T06:36:51;100293.53;;;15.57;100.00
29839;BME280;18669;53.356;-1.464;2022-08-19T06:39:21;100298.56;;;15.63;100.00
29839;BME280;18669;53.356;-1.464;2022-08-19T06:41:51;100294.69;;;15.71;100.00
29839;BME280;18669;53.356;-1.464;2022-08-19T06:44:19;100296.00;;;15.81;100.00
29839;BME280;18669;53.356;-1.464;2022-08-19T06:46:46;100297.75;;;15.80;100.00
29839;BME280;18669;53.356;-1.464;2022-08-19T06:49:12;100294.63;;;15.91;100.00
29839;BME280;18669;53.356;-1.464;2022-08-19T06:51:44;100294.28;;;16.17;100.00
29839;BME280;18669;53.356;-1.464;2022-08-19T06:54:14;100299.69;;;16.15;100.00
29839;BME280;18669;53.356;-1.464;2022-08-19T06:56:40;100305.34;;;16.07;100.00
29839;BME280;18669;53.356;-1.464;2022-08-19T06:59:12;100311.38;;;16.11;100.00
29839;BME280;18669;53.356;-1.464;2022-08-19T07:01:43;100316.53;;;16.14;100.00
29839;BME280;18669;53.356;-1.464;2022-08-19T07:04:13;100311.09;;;16.17;100.00
29839;BME280;18669;53.356;-1.464;2022-08-19T07:06:39;100313.44;;;16.23;100.00
29839;BME280;18669;53.356;-1.464;2022-08-19T07:09:06;100311.19;;;16.33;100.00
29839;BME280;18669;53.356;-1.464;2022-08-19T07:11:33;100323.28;;;16.39;100.00
29839;BME280;18669;53.356;-1.464;2022-08-19T07:14:00;100321.59;;;16.55;100.00
29839;BME280;18669;53.356;-1.464;2022-08-19T07:16:26;100316.81;;;16.62;100.00
29839;BME280;18669;53.356;-1.464;2022-08-19T07:18:53;100318.13;;;16.71;100.00
29839;BME280;18669;53.356;-1.464;2022-08-19T07:21:29;100321.47;;;16.92;100.00
29839;BME280;18669;53.356;-1.464;2022-08-19T07:23:56;100322.91;;;16.99;100.00
29839;BME280;18669;53.356;-1.464;2022-08-19T07:26:26;100323.66;;;17.19;100.00
29839;BME280;18669;53.356;-1.464;2022-08-19T07:28:53;100322.38;;;17.26;100.00
29839;BME280;18669;53.356;-1.464;2022-08-19T07:31:23;100322.41;;;17.42;100.00
29839;BME280;18669;53.356;-1.464;2022-08-19T07:33:52;100336.16;;;17.51;100.00
29839;BME280;18669;53.356;-1.464;2022-08-19T07:36:20;100334.00;;;17.57;100.00
29839;BME280;18669;53.356;-1.464;2022-08-19T07:38:49;100332.41;;;17.71;100.00
29839;BME280;18669;53.356;-1.464;2022-08-19T07:41:19;100322.81;;;18.00;100.00
29839;BME280;18669;53.356;-1.464;2022-08-19T07:43:46;100322.81;;;18.16;100.00
29839;BME280;18669;53.356;-1.464;2022-08-19T07:46:13;100329.38;;;18.41;100.00
29839;BME280;18669;53.356;-1.464;2022-08-19T07:48:41;100337.97;;;18.91;100.00
29839;BME280;18669;53.356;-1.464;2022-08-19T07:51:09;100330.13;;;19.33;100.00
29839;BME280;18669;53.356;-1.464;2022-08-19T07:53:37;100327.47;;;20.04;100.00
29839;BME280;18669;53.356;-1.464;2022-08-19T07:56:04;100334.28;;;20.76;100.00
29839;BME280;18669;53.356;-1.464;2022-08-19T07:58:33;100334.97;;;21.31;85.85
29839;BME280;18669;53.356;-1.464;2022-08-19T08:01:00;100341.69;;;21.50;83.30
29839;BME280;18669;53.356;-1.464;2022-08-19T08:03:28;100345.34;;;21.49;77.64
29839;BME280;18669;53.356;-1.464;2022-08-19T08:06:14;100353.91;;;21.02;75.59
29839;BME280;18669;53.356;-1.464;2022-08-19T08:08:59;100350.44;;;20.34;80.18
29839;BME280;18669;53.356;-1.464;2022-08-19T08:11:39;100355.53;;;19.68;80.53
29839;BME280;18669;53.356;-1.464;2022-08-19T08:14:06;100353.84;;;19.23;85.10
29839;BME280;18669;53.356;-1.464;2022-08-19T08:16:36;100356.94;;;19.01;95.53
29839;BME280;18669;53.356;-1.464;2022-08-19T08:19:05;100364.63;;;18.91;93.85
29839;BME280;18669;53.356;-1.464;2022-08-19T08:21:32;100362.47;;;18.98;99.43
29839;BME280;18669;53.356;-1.464;2022-08-19T08:23:58;100362.13;;;19.19;94.37
29839;BME280;18669;53.356;-1.464;2022-08-19T08:26:25;100364.88;;;19.90;93.57
29839;BME280;18669;53.356;-1.464;2022-08-19T08:28:52;100355.22;;;20.29;79.96
29839;BME280;18669;53.356;-1.464;2022-08-19T08:31:18;100356.25;;;20.54;83.10
29839;BME280;18669;53.356;-1.464;2022-08-19T08:33:46;100358.09;;;21.20;78.46
29839;BME280;18669;53.356;-1.464;2022-08-19T08:36:13;100361.28;;;21.64;70.70
29839;BME280;18669;53.356;-1.464;2022-08-19T08:38:41;100360.19;;;22.16;67.90
29839;BME280;18669;53.356;-1.464;2022-08-19T08:43:40;100366.38;;;22.17;60.73
29839;BME280;18669;53.356;-1.464;2022-08-19T08:46:13;100359.88;;;21.58;65.76
29839;BME280;18669;53.356;-1.464;2022-08-19T08:49:20;100356.38;;;21.70;64.98
29839;BME280;18669;53.356;-1.464;2022-08-19T08:51:46;100357.44;;;21.68;62.39
29839;BME280;18669;53.356;-1.464;2022-08-19T08:54:18;100359.38;;;21.27;59.76
29839;BME280;18669;53.356;-1.464;2022-08-19T08:56:46;100358.38;;;21.67;68.05
29839;BME280;18669;53.356;-1.464;2022-08-19T08:59:30;100352.72;;;22.93;58.64
29839;BME280;18669;53.356;-1.464;2022-08-19T09:01:58;100348.75;;;23.56;52.64
29839;BME280;18669;53.356;-1.464;2022-08-19T09:04:25;100338.84;;;24.55;48.56
29839;BME280;18669;53.356;-1.464;2022-08-19T09:09:40;100354.56;;;25.14;48.06
29839;BME280;18669;53.356;-1.464;2022-08-19T09:15:04;100362.94;;;25.83;45.64
29839;BME280;18669;53.356;-1.464;2022-08-19T09:17:32;100363.09;;;25.81;44.54
29839;BME280;18669;53.356;-1.464;2022-08-19T09:20:20;100366.59;;;26.13;43.75
29839;BME280;18669;53.356;-1.464;2022-08-19T09:22:47;100361.47;;;26.10;41.84
29839;BME280;18669;53.356;-1.464;2022-08-19T09:25:21;100360.38;;;25.71;42.52
29839;BME280;18669;53.356;-1.464;2022-08-19T09:27:50;100363.41;;;25.26;43.14
29839;BME280;18669;53.356;-1.464;2022-08-19T09:30:21;100358.31;;;24.80;42.93
29839;BME280;18669;53.356;-1.464;2022-08-19T09:32:47;100351.13;;;24.69;43.80
29839;BME280;18669;53.356;-1.464;2022-08-19T09:35:15;100361.81;;;24.60;43.87
29839;BME280;18669;53.356;-1.464;2022-08-19T09:37:42;100355.34;;;25.57;43.46
29839;BME280;18669;53.356;-1.464;2022-08-19T09:40:10;100356.50;;;25.64;41.67
29839;BME280;18669;53.356;-1.464;2022-08-19T09:42:37;100354.53;;;26.46;40.29
29839;BME280;18669;53.356;-1.464;2022-08-19T09:45:04;100363.03;;;26.71;39.56
29839;BME280;18669;53.356;-1.464;2022-08-19T09:47:30;100349.63;;;27.57;38.95
29839;BME280;18669;53.356;-1.464;2022-08-19T09:49:58;100352.63;;;28.09;37.31
29839;BME280;18669;53.356;-1.464;2022-08-19T09:52:24;100339.69;;;27.57;36.98
29839;BME280;18669;53.356;-1.464;2022-08-19T09:54:53;100353.34;;;28.11;37.04
29839;BME280;18669;53.356;-1.464;2022-08-19T09:57:20;100358.44;;;28.87;35.00
29839;BME280;18669;53.356;-1.464;2022-08-19T09:59:46;100361.22;;;29.56;33.73
29839;BME280;18669;53.356;-1.464;2022-08-19T10:02:13;100369.41;;;30.16;31.70
29839;BME280;18669;53.356;-1.464;2022-08-19T10:04:39;100367.69;;;29.64;32.21
29839;BME280;18669;53.356;-1.464;2022-08-19T10:07:24;100371.91;;;29.58;32.59
29839;BME280;18669;53.356;-1.464;2022-08-19T10:09:50;100359.53;;;28.58;35.45
29839;BME280;18669;53.356;-1.464;2022-08-19T10:12:16;100363.88;;;27.11;36.43
29839;BME280;18669;53.356;-1.464;2022-08-19T10:14:42;100360.78;;;26.37;39.37
29839;BME280;18669;53.356;-1.464;2022-08-19T10:17:08;100364.31;;;26.97;38.11
29839;BME280;18669;53.356;-1.464;2022-08-19T10:19:34;100356.91;;;27.84;36.56
29839;BME280;18669;53.356;-1.464;2022-08-19T10:22:04;100362.56;;;28.37;33.28
29839;BME280;18669;53.356;-1.464;2022-08-19T10:24:31;100360.06;;;28.25;33.31
29839;BME280;18669;53.356;-1.464;2022-08-19T10:26:58;100360.84;;;28.18;33.96
29839;BME280;18669;53.356;-1.464;2022-08-19T10:29:26;100359.16;;;28.35;34.13
29839;BME280;18669;53.356;-1.464;2022-08-19T10:31:53;100360.53;;;27.93;35.49
29839;BME280;18669;53.356;-1.464;2022-08-19T10:34:22;100371.97;;;27.11;34.66
29839;BME280;18669;53.356;-1.464;2022-08-19T10:36:48;100366.50;;;25.83;36.88
29839;BME280;18669;53.356;-1.464;2022-08-19T10:39:15;100371.25;;;25.39;38.94
29839;BME280;18669;53.356;-1.464;2022-08-19T10:41:41;100369.97;;;25.33;39.06
29839;BME280;18669;53.356;-1.464;2022-08-19T10:44:12;100361.88;;;25.33;39.14
29839;BME280;18669;53.356;-1.464;2022-08-19T10:46:43;100365.31;;;26.17;37.74
29839;BME280;18669;53.356;-1.464;2022-08-19T10:49:11;100348.97;;;27.54;34.89
29839;BME280;18669;53.356;-1.464;2022-08-19T10:51:39;100347.13;;;29.53;32.59
29839;BME280;18669;53.356;-1.464;2022-08-19T10:54:24;100354.59;;;28.35;33.87
29839;BME280;18669;53.356;-1.464;2022-08-19T10:57:10;100351.69;;;26.87;35.89
29839;BME280;18669;53.356;-1.464;2022-08-19T10:59:36;100344.91;;;26.44;36.88
29839;BME280;18669;53.356;-1.464;2022-08-19T11:02:05;100354.19;;;26.00;38.01
29839;BME280;18669;53.356;-1.464;2022-08-19T11:04:33;100362.91;;;25.11;39.34
29839;BME280;18669;53.356;-1.464;2022-08-19T11:06:59;100367.28;;;24.69;40.20
29839;BME280;18669;53.356;-1.464;2022-08-19T11:09:26;100359.13;;;24.27;41.14
29839;BME280;18669;53.356;-1.464;2022-08-19T11:11:55;100364.09;;;23.99;42.22
29839;BME280;18669;53.356;-1.464;2022-08-19T11:14:23;100359.59;;;24.00;43.36
29839;BME280;18669;53.356;-1.464;2022-08-19T11:16:52;100363.50;;;23.84;43.47
29839;BME280;18669;53.356;-1.464;2022-08-19T11:19:21;100365.22;;;23.39;43.26
29839;BME280;18669;53.356;-1.464;2022-08-19T11:21:50;100366.72;;;22.97;44.71
29839;BME280;18669;53.356;-1.464;2022-08-19T11:24:23;100366.19;;;22.80;45.28
29839;BME280;18669;53.356;-1.464;2022-08-19T11:26:52;100370.41;;;23.07;44.96
29839;BME280;18669;53.356;-1.464;2022-08-19T11:29:21;100366.53;;;23.22;42.89
29839;BME280;18669;53.356;-1.464;2022-08-19T11:31:49;100362.53;;;23.28;43.27
29839;BME280;18669;53.356;-1.464;2022-08-19T11:34:20;100364.25;;;23.41;43.18
29839;BME280;18669;53.356;-1.464;2022-08-19T11:36:48;100360.94;;;23.26;43.91
29839;BME280;18669;53.356;-1.464;2022-08-19T11:39:16;100361.19;;;23.22;44.26
29839;BME280;18669;53.356;-1.464;2022-08-19T11:41:42;100350.56;;;23.32;45.69
29839;BME280;18669;53.356;-1.464;2022-08-19T11:44:08;100356.31;;;23.62;42.56
29839;BME280;18669;53.356;-1.464;2022-08-19T11:46:37;100353.34;;;23.88;42.43
29839;BME280;18669;53.356;-1.464;2022-08-19T11:49:04;100351.19;;;24.58;43.22
29839;BME280;18669;53.356;-1.464;2022-08-19T11:51:31;100356.56;;;24.58;40.25
29839;BME280;18669;53.356;-1.464;2022-08-19T11:53:58;100354.63;;;24.81;39.33
29839;BME280;18669;53.356;-1.464;2022-08-19T11:56:26;100360.84;;;25.96;38.12
29839;BME280;18669;53.356;-1.464;2022-08-19T11:58:53;100359.22;;;27.41;35.45
29839;BME280;18669;53.356;-1.464;2022-08-19T12:01:21;100344.88;;;27.96;34.44
29839;BME280;18669;53.356;-1.464;2022-08-19T12:03:50;100345.63;;;27.71;33.96
29839;BME280;18669;53.356;-1.464;2022-08-19T12:06:23;100352.28;;;26.81;37.52
29839;BME280;18669;53.356;-1.464;2022-08-19T12:08:51;100358.94;;;26.47;37.66
29839;BME280;18669;53.356;-1.464;2022-08-19T12:11:18;100365.50;;;25.84;38.13
29839;BME280;18669;53.356;-1.464;2022-08-19T12:13:44;100371.63;;;25.24;39.64
29839;BME280;18669;53.356;-1.464;2022-08-19T12:16:15;100371.03;;;25.21;39.87
29839;BME280;18669;53.356;-1.464;2022-08-19T12:18:42;100366.91;;;25.16;40.96
29839;BME280;18669;53.356;-1.464;2022-08-19T12:21:16;100367.25;;;25.54;41.10
29839;BME280;18669;53.356;-1.464;2022-08-19T12:23:43;100372.41;;;25.67;40.26
29839;BME280;18669;53.356;-1.464;2022-08-19T12:26:11;100369.44;;;25.39;40.28
29839;BME280;18669;53.356;-1.464;2022-08-19T12:28:38;100373.16;;;25.17;41.31
29839;BME280;18669;53.356;-1.464;2022-08-19T12:31:05;100373.00;;;24.76;42.53
29839;BME280;18669;53.356;-1.464;2022-08-19T12:33:31;100379.22;;;24.11;44.61
29839;BME280;18669;53.356;-1.464;2022-08-19T12:36:03;100384.84;;;24.08;43.62
29839;BME280;18669;53.356;-1.464;2022-08-19T12:38:29;100383.50;;;23.80;44.42
29839;BME280;18669;53.356;-1.464;2022-08-19T12:40:56;100384.75;;;23.64;45.00
29839;BME280;18669;53.356;-1.464;2022-08-19T12:43:22;100381.56;;;23.48;46.42
29839;BME280;18669;53.356;-1.464;2022-08-19T12:45:48;100380.81;;;23.34;46.30
29839;BME280;18669;53.356;-1.464;2022-08-19T12:48:14;100383.50;;;23.34;46.48
29839;BME280;18669;53.356;-1.464;2022-08-19T12:50:42;100380.09;;;23.44;47.50
29839;BME280;18669;53.356;-1.464;2022-08-19T12:53:11;100375.09;;;23.50;45.94